createdAt,value
2023-02-13T00:00:40.644Z,101158.97
2023-02-13T00:04:47.808Z,101161.19
2023-02-13T00:08:51.894Z,101140.97
2023-02-13T00:12:54.583Z,101159.47
2023-02-13T00:16:57.273Z,101154.41
2023-02-13T00:21:02.716Z,101160.16
2023-02-13T00:25:07.925Z,101146.22
2023-02-13T00:29:10.620Z,101132.06
2023-02-13T00:33:13.832Z,101116.72
2023-02-13T00:37:17.150Z,101170.88
2023-02-13T00:41:22.757Z,101171.75
2023-02-13T00:45:25.496Z,101169.16
2023-02-13T00:49:28.232Z,101154.59
2023-02-13T00:53:31.177Z,101168.59
2023-02-13T00:57:35.308Z,101139.72
2023-02-13T01:01:38.769Z,101158.31
2023-02-13T01:05:41.751Z,101144.44
2023-02-13T01:09:44.562Z,101158.75
2023-02-13T01:13:48.607Z,101152.50
2023-02-13T01:17:51.369Z,101120.13
2023-02-13T01:21:54.492Z,101155.47
2023-02-13T01:25:57.138Z,101152.44
2023-02-13T01:30:02.743Z,101154.50
2023-02-13T01:34:05.410Z,101144.41
2023-02-13T01:38:08.062Z,101146.16
2023-02-13T01:42:16.390Z,101164.03
2023-02-13T01:46:25.135Z,101161.75
2023-02-13T01:50:32.666Z,101158.63
2023-02-13T01:54:36.077Z,101165.97
2023-02-13T01:58:41.346Z,101155.97
2023-02-13T02:02:48.729Z,101147.94
2023-02-13T02:06:54.023Z,101150.53
2023-02-13T02:10:58.245Z,101148.53
2023-02-13T02:15:02.745Z,101154.81
2023-02-13T02:19:21.069Z,101151.47
2023-02-13T02:23:52.275Z,101141.63
2023-02-13T02:28:11.927Z,101143.94
2023-02-13T02:32:44.309Z,101142.56
2023-02-13T02:37:10.001Z,101128.00
2023-02-13T02:41:43.665Z,101130.53
2023-02-13T02:45:58.997Z,101137.22
2023-02-13T02:50:18.032Z,101135.03
2023-02-13T02:54:44.706Z,101134.69
2023-02-13T02:59:09.557Z,101143.06
2023-02-13T03:03:35.965Z,101129.06
2023-02-13T03:07:41.909Z,101138.16
2023-02-13T03:12:04.770Z,101136.88
2023-02-13T03:16:30.577Z,101129.94
2023-02-13T03:21:02.226Z,101118.06
2023-02-13T03:25:15.201Z,101134.91
2023-02-13T03:29:45.111Z,101141.97
2023-02-13T03:34:02.954Z,101138.97
2023-02-13T03:38:16.345Z,101131.13
2023-02-13T03:42:29.059Z,101140.31
2023-02-13T03:46:42.668Z,101146.06
2023-02-13T03:50:50.591Z,101144.41
2023-02-13T03:55:16.056Z,101141.97
2023-02-13T03:59:25.257Z,101147.53
2023-02-13T04:03:33.136Z,101151.50
2023-02-13T04:07:37.885Z,101151.41
2023-02-13T04:11:46.602Z,101159.44
2023-02-13T04:15:54.138Z,101158.84
2023-02-13T04:19:58.333Z,101158.59
2023-02-13T04:24:02.015Z,101160.22
2023-02-13T04:28:06.753Z,101159.19
2023-02-13T04:32:13.081Z,101165.09
2023-02-13T04:36:17.133Z,101165.94
2023-02-13T04:40:34.754Z,101167.47
2023-02-13T04:44:39.210Z,101160.63
2023-02-13T04:48:47.374Z,101161.44
2023-02-13T04:52:56.054Z,101153.56
2023-02-13T04:57:00.095Z,101159.81
2023-02-13T05:01:04.130Z,101156.88
2023-02-13T05:05:10.520Z,101159.34
2023-02-13T05:09:20.212Z,101155.69
2023-02-13T05:13:27.409Z,101153.94
2023-02-13T05:17:42.843Z,101148.97
2023-02-13T05:22:05.453Z,101155.94
2023-02-13T05:26:09.377Z,101153.78
2023-02-13T05:30:14.535Z,101153.34
2023-02-13T05:34:18.828Z,101144.38
2023-02-13T05:38:23.988Z,101144.97
2023-02-13T05:42:27.803Z,101152.53
2023-02-13T05:46:31.814Z,101154.63
2023-02-13T05:50:35.921Z,101153.69
2023-02-13T05:54:43.345Z,101159.19
2023-02-13T05:58:47.134Z,101149.44
2023-02-13T06:02:50.930Z,101147.44
2023-02-13T06:06:54.992Z,101145.69
2023-02-13T06:11:00.667Z,101148.88
2023-02-13T06:15:04.837Z,101153.00
2023-02-13T06:19:08.679Z,101149.44
2023-02-13T06:23:12.716Z,101149.66
2023-02-13T06:27:17.890Z,101156.88
2023-02-13T06:31:21.400Z,101159.00
2023-02-13T06:35:25.290Z,101166.28
2023-02-13T06:39:28.577Z,101163.81
2023-02-13T06:43:33.226Z,101167.72
2023-02-13T06:47:36.935Z,101161.81
2023-02-13T06:51:40.233Z,101166.78
2023-02-13T06:55:46.354Z,101171.72
2023-02-13T06:59:51.771Z,101170.28
2023-02-13T07:03:55.782Z,101174.88
2023-02-13T07:08:01.011Z,101175.34
2023-02-13T07:12:05.042Z,101176.53
2023-02-13T07:16:09.855Z,101179.59
2023-02-13T07:20:13.689Z,101173.47
2023-02-13T07:24:16.944Z,101195.81
2023-02-13T07:28:19.872Z,101186.38
2023-02-13T07:32:24.758Z,101197.69
2023-02-13T07:36:27.682Z,101189.59
2023-02-13T07:40:32.636Z,101193.41
2023-02-13T07:44:38.587Z,101186.50
2023-02-13T07:48:43.695Z,101193.63
2023-02-13T07:52:55.198Z,101184.31
2023-02-13T07:57:00.197Z,101195.72
2023-02-13T08:01:09.007Z,101187.22
2023-02-13T08:05:14.995Z,101170.94
2023-02-13T08:09:45.484Z,101172.47
2023-02-13T08:13:52.820Z,101166.56
2023-02-13T08:18:07.788Z,101179.41
2023-02-13T08:22:14.893Z,101181.31
2023-02-13T08:26:22.128Z,101172.72
2023-02-13T08:30:27.314Z,101168.91
2023-02-13T08:34:34.477Z,101174.50
2023-02-13T08:42:46.986Z,101172.56
2023-02-13T08:46:51.857Z,101172.25
2023-02-13T08:50:59.278Z,101181.84
2023-02-13T08:55:04.113Z,101182.41
2023-02-13T08:59:09.322Z,101181.59
2023-02-13T09:03:23.669Z,101177.19
2023-02-13T09:07:32.525Z,101171.75
2023-02-13T09:11:46.636Z,101177.44
2023-02-13T09:15:51.716Z,101180.56
2023-02-13T09:19:55.551Z,101177.22
2023-02-13T09:23:59.740Z,101178.97
2023-02-13T09:28:08.583Z,101187.19
2023-02-13T09:32:12.522Z,101179.63
2023-02-13T09:36:22.664Z,101186.41
2023-02-13T09:40:30.195Z,101189.81
2023-02-13T09:44:42.595Z,101190.16
2023-02-13T09:48:51.382Z,101189.84
2023-02-13T09:52:57.954Z,101189.72
2023-02-13T09:57:03.125Z,101174.19
2023-02-13T10:01:19.667Z,101186.91
2023-02-13T10:05:39.141Z,101184.34
2023-02-13T10:09:52.374Z,101179.47
2023-02-13T10:14:06.732Z,101199.88
2023-02-13T10:22:38.367Z,101192.44
2023-02-13T10:26:46.799Z,101207.47
2023-02-13T10:30:59.359Z,101193.00
2023-02-13T10:35:11.631Z,101186.56
2023-02-13T10:39:25.802Z,101200.63
2023-02-13T10:43:31.289Z,101189.38
2023-02-13T10:52:31.581Z,101178.69
2023-02-13T10:56:42.464Z,101188.88
2023-02-13T11:00:48.780Z,101177.38
2023-02-13T11:04:54.659Z,101161.84
2023-02-13T11:09:01.854Z,101181.41
2023-02-13T11:13:20.977Z,101176.69
2023-02-13T11:17:27.966Z,101162.38
2023-02-13T11:21:47.153Z,101165.38
2023-02-13T11:26:01.064Z,101160.31
2023-02-13T11:30:09.104Z,101161.44
2023-02-13T11:34:27.215Z,101161.81
2023-02-13T11:38:33.060Z,101160.56
2023-02-13T11:42:39.549Z,101156.50
2023-02-13T11:46:48.999Z,101154.47
2023-02-13T11:50:57.755Z,101154.03
2023-02-13T11:55:08.648Z,101153.50
2023-02-13T11:59:15.968Z,101161.63
2023-02-13T12:03:31.200Z,101149.00
2023-02-13T12:07:35.124Z,101153.69
2023-02-13T12:11:42.306Z,101141.72
2023-02-13T12:15:51.258Z,101151.19
2023-02-13T12:19:55.680Z,101141.78
2023-02-13T12:24:04.896Z,101144.22
2023-02-13T12:28:17.171Z,101149.69
2023-02-13T12:32:23.127Z,101129.13
2023-02-13T12:36:32.358Z,101128.72
2023-02-13T12:40:50.956Z,101126.03
2023-02-13T12:45:14.780Z,101122.00
2023-02-13T12:49:32.278Z,101106.13
2023-02-13T12:53:55.881Z,101081.47
2023-02-13T12:58:09.121Z,101116.50
2023-02-13T13:02:29.676Z,101109.97
2023-02-13T13:07:00.576Z,101102.88
2023-02-13T13:11:14.821Z,101101.41
2023-02-13T13:15:27.185Z,101094.47
2023-02-13T13:19:37.143Z,101094.50
2023-02-13T13:23:43.910Z,101086.25
2023-02-13T13:27:49.485Z,101087.16
2023-02-13T13:31:55.646Z,101073.03
2023-02-13T13:36:04.884Z,101075.53
2023-02-13T13:40:30.077Z,101062.53
2023-02-13T13:44:49.750Z,101063.50
2023-02-13T13:49:12.044Z,101068.34
2023-02-13T13:53:16.188Z,101070.44
2023-02-13T13:57:21.222Z,101058.38
2023-02-13T14:01:27.106Z,101051.63
2023-02-13T14:05:36.030Z,101045.81
2023-02-13T14:09:40.752Z,101056.19
2023-02-13T14:13:46.138Z,101046.41
2023-02-13T14:17:54.853Z,101053.34
2023-02-13T14:22:28.050Z,101052.31
2023-02-13T14:26:36.141Z,101046.75
2023-02-13T14:30:41.019Z,101043.75
2023-02-13T14:34:44.495Z,101042.31
2023-02-13T14:38:57.038Z,101041.84
2023-02-13T14:43:02.337Z,101041.84
2023-02-13T14:47:14.610Z,101044.31
2023-02-13T14:51:28.855Z,101033.34
2023-02-13T14:55:35.729Z,101037.22
2023-02-13T14:59:40.784Z,101032.09
2023-02-13T15:03:48.689Z,101045.78
2023-02-13T15:08:01.305Z,101030.50
2023-02-13T15:12:04.396Z,101035.00
2023-02-13T15:16:09.671Z,101029.66
2023-02-13T15:20:25.022Z,101033.53
2023-02-13T15:24:28.930Z,101021.59
2023-02-13T15:28:32.767Z,101023.81
2023-02-13T15:32:37.439Z,101022.59
2023-02-13T15:36:43.079Z,101030.72
2023-02-13T15:40:46.008Z,101022.19
2023-02-13T15:44:50.735Z,101027.69
2023-02-13T15:48:54.737Z,101021.59
2023-02-13T15:53:01.391Z,101027.84
2023-02-13T15:57:06.928Z,101026.88
2023-02-13T16:01:10.952Z,101029.66
2023-02-13T16:05:29.404Z,101022.91
2023-02-13T16:09:46.213Z,101025.06
2023-02-13T16:14:08.040Z,101025.41
2023-02-13T16:18:20.882Z,101027.25
2023-02-13T16:22:30.720Z,101032.59
2023-02-13T16:26:36.447Z,101029.91
2023-02-13T16:30:42.623Z,101034.84
2023-02-13T16:34:46.095Z,101037.31
2023-02-13T16:38:50.102Z,101028.69
2023-02-13T16:42:58.766Z,101029.91
2023-02-13T16:47:03.756Z,101032.09
2023-02-13T16:51:10.008Z,101032.53
2023-02-13T16:55:17.073Z,101026.09
2023-02-13T16:59:32.606Z,101042.66
2023-02-13T17:03:36.322Z,101049.88
2023-02-13T17:07:41.829Z,101052.63
2023-02-13T17:11:51.130Z,101058.00
2023-02-13T17:15:56.266Z,101043.00
2023-02-13T17:19:59.666Z,101053.19
2023-02-13T17:24:05.792Z,101052.22
2023-02-13T17:28:23.998Z,101057.81
2023-02-13T17:32:30.355Z,101052.94
2023-02-13T17:36:38.858Z,101057.94
2023-02-13T17:40:43.130Z,101057.69
2023-02-13T17:44:47.208Z,101049.66
2023-02-13T17:48:55.429Z,101058.66
2023-02-13T17:53:00.117Z,101056.00
2023-02-13T17:57:04.071Z,101047.41
2023-02-13T18:01:11.924Z,101030.47
2023-02-13T18:05:18.284Z,101044.66
2023-02-13T18:09:22.396Z,101053.31
2023-02-13T18:13:26.598Z,101049.34
2023-02-13T18:17:29.910Z,101062.72
2023-02-13T18:21:35.148Z,101057.38
2023-02-13T18:25:42.254Z,101058.44
2023-02-13T18:29:46.897Z,101063.41
2023-02-13T18:33:50.816Z,101069.75
2023-02-13T18:37:56.904Z,101061.56
2023-02-13T18:42:01.016Z,101067.03
2023-02-13T18:46:05.399Z,101075.91
2023-02-13T18:50:12.985Z,101082.69
2023-02-13T18:54:20.784Z,101083.91
2023-02-13T18:58:24.408Z,101090.91
2023-02-13T19:02:28.691Z,101089.47
2023-02-13T19:06:33.375Z,101096.69
2023-02-13T19:10:38.614Z,101080.47
2023-02-13T19:14:45.148Z,101092.25
2023-02-13T19:18:55.283Z,101099.53
2023-02-13T19:22:59.697Z,101103.84
2023-02-13T19:27:05.002Z,101087.28
2023-02-13T19:31:11.288Z,101096.47
2023-02-13T19:35:15.763Z,101096.13
2023-02-13T19:39:25.555Z,101089.16
2023-02-13T19:43:30.857Z,101092.31
2023-02-13T19:47:38.246Z,101098.28
2023-02-13T19:51:49.680Z,101103.00
2023-02-13T19:56:05.262Z,101112.31
2023-02-13T20:00:12.285Z,101109.78
2023-02-13T20:04:16.392Z,101122.38
2023-02-13T20:08:20.163Z,101108.97
2023-02-13T20:12:23.973Z,101114.16
2023-02-13T20:16:33.181Z,101109.28
2023-02-13T20:20:37.078Z,101119.66
2023-02-13T20:24:41.129Z,101121.47
2023-02-13T20:28:46.419Z,101125.72
2023-02-13T20:32:51.605Z,101119.03
2023-02-13T20:36:55.426Z,101120.25
2023-02-13T20:41:01.818Z,101127.41
2023-02-13T20:45:07.651Z,101113.66
2023-02-13T20:49:19.138Z,101116.56
2023-02-13T20:53:26.078Z,101119.03
2023-02-13T20:57:30.701Z,101108.47
2023-02-13T21:01:37.887Z,101109.41
2023-02-13T21:05:44.094Z,101098.34
2023-02-13T21:09:48.213Z,101110.25
2023-02-13T21:13:52.670Z,101107.25
2023-02-13T21:18:04.556Z,101097.94
2023-02-13T21:22:23.681Z,101106.41
2023-02-13T21:26:27.976Z,101098.31
2023-02-13T21:30:31.749Z,101090.66
2023-02-13T21:34:35.736Z,101094.38
2023-02-13T21:38:42.028Z,101100.81
2023-02-13T21:42:49.966Z,101098.88
2023-02-13T21:46:54.049Z,101094.34
2023-02-13T21:50:58.203Z,101088.31
2023-02-13T21:55:10.364Z,101079.16
2023-02-13T21:59:19.677Z,101092.69
2023-02-13T22:03:26.191Z,101090.47
2023-02-13T22:07:35.143Z,101080.75
2023-02-13T22:11:58.708Z,101078.03
2023-02-13T22:16:04.020Z,101079.38
2023-02-13T22:20:09.729Z,101072.84
2023-02-13T22:24:14.577Z,101080.97
2023-02-13T22:28:24.225Z,101080.75
2023-02-13T22:32:43.623Z,101081.28
2023-02-13T22:36:51.142Z,101086.91
2023-02-13T22:40:59.595Z,101085.38
2023-02-13T22:45:17.932Z,101072.56
2023-02-13T22:49:23.616Z,101063.31
2023-02-13T22:53:36.120Z,101091.31
2023-02-13T22:58:01.885Z,101092.31
2023-02-13T23:02:10.864Z,101079.31
2023-02-13T23:06:21.054Z,101045.97
2023-02-13T23:10:26.698Z,101071.00
2023-02-13T23:14:39.272Z,101078.47
2023-02-13T23:18:52.251Z,101072.81
2023-02-13T23:23:07.244Z,101079.13
2023-02-13T23:27:13.613Z,101070.53
2023-02-13T23:31:17.558Z,101067.13
2023-02-13T23:35:23.233Z,101064.22
2023-02-13T23:39:30.807Z,101058.56
2023-02-13T23:43:35.219Z,101057.63
2023-02-13T23:47:47.637Z,101061.91
2023-02-13T23:52:07.873Z,101066.22
2023-02-13T23:56:11.709Z,101064.97
